Terminal Aerodrome Forecast
Issued by NWS

Home | Current Version | Previous Version | Graphics & Text | Print | Product List | Glossary On
Versions: 1 2 3 4 5 6 7 8 9 10 11 12 13 14 15 16 17 18 19 20
000
FTUS43 KGRB 020500
TAFATW
TAF
KATW 020534Z 0206/0306 27007KT P6SM SCT040
     FM021500 29006KT P6SM SKC
     FM022100 23005KT P6SM BKN200
     FM030300 18004KT P6SM BKN120=

USA.gov is the U.S. government's official web portal to all federal, state and local government web resources and services.